الصفحة الرئيسية
METAR-TAF:

METAR-TAF

مطار :

أليانس, نبراسكا, الولايات المتحدة

دائرة عرض: 42-03-26N, خط طول: 102-48-00W, ارتفاع: 1197 متر

مراقبة الطقس الحالي

تاريخ ووقت الإصدار 37 دقيقة قبل الساعة 01:53UTC
ريح 7 عقدة من الشمال/الشمال الشرقي
درجة الحرارة 22°درجة مئوية
الرطوبة 65%
ضغط 1013 hPa
الرؤية: 16.1 كم
سماء صافية

METAR: KAIA 260153Z AUTO 03007KT 10SM CLR 22/15 A2991 RMK AO2 SLP089 T02220150

زمن: 20:30 (02:30 UTC)

توقعات

تاريخ ووقت الإصدار 3ساعات و 8 دقيقة قبل الساعة 23:22UTC
التوقعات صالحة من26 الساعة 00 UTC إلى 26 الساعة 24 UTC
ريح 7 عقدة من الشمال الغربي
الرؤية: 10 كم
غيوم قليلة على ارتفاع 10000 قدم
من 26 الساعة 0100 UTC
ريح 5 عقدةمن اتجاهات متغيرة
الرؤية: 10 كم
سماء صافية

TAF: KAIA 252322Z 2600/2624 31007KT P6SM FEW100 FM260100 VRB05KT P6SM SKC

أرصاد الطقس والتوقعات من أكثر من 4000 مطار (تقارير الطقس للمطار METAR والتنبؤ بالطقس بالمطارTAF).

المحطات المتاحة هي النقط الصفراء والحمراء على الخريطة.

حرك المؤشر فوق النقطة لمعرفة اسم المحطة.

ثم انقر لمعرفة أرصاد وتوقعات الطقس.

لتغيير الخارطة: اضغط على الأزرار الخضراء مع رمز الصليب الأسود للتكبير. على الزر الأخضر مع شرطة للتصغير، أو على الأسهم الخضراء للخرائط المجاورة.


METAR-TAF: